Briarwood, North Dakota
Current Conditions -  °F | °C
As of 11:53 PM on Sunday 21 Dec 2014 (Local Time) from KFAR Reporting Station
Haze Haze  
Wind Chill: 31°   Ceiling: 600
Heat Index: 37°   Visibility: 5mi
Dew Point: 34°   Wind: 8mph
Humidity: 89%   Direction: 130°SE
Pressure: 29.54"   Gusts: NA
Location:  46.8079°N, 96.8643°W
Report Text: KFAR 220553Z 13007KT 5SM BR BKN006 OVC014 03/01 A2954 RMK AO2 SLP014 I6000 T00280011 10028 20017 400280000 57006
Loading
Personal Weather Stations






























Interactive Weather Map New forecast layout! Learn more

10-Day Weather Forecast

Advertisements
Track Severe Weather on mobile